Terminal Aerodrome Forecast
Issued by NWS

Home | Current Version | Previous Version | Text Only | Print | Product List | Glossary On
Versions: 1 2 3 4 5 6 7 8 9 10 11 12 13
000
FTUS42 KMLB 272346
TAFTIX
TAF
KTIX 272346Z 2800/2824 VRB05KT P6SM VCTS SCT020CB BKN100
      TEMPO 2800/2802 6SM -TSRA BKN020CB
     FM280200 VRB03KT P6SM SCT020 BKN250
     FM281600 07009KT P6SM VCTS SCT020CB SCT250
     FM282200 08009KT P6SM SCT035 BKN250
      AMD NOT SKED 2801/2811=

USA.gov is the U.S. government's official web portal to all federal, state and local government web resources and services.